createdAt,value
2023-03-23T15:59:11.342Z,7.30
2023-03-23T16:01:41.597Z,8.20
2023-03-23T16:04:23.432Z,10.40
2023-03-23T16:07:01.680Z,11.00
2023-03-23T16:09:28.527Z,7.90
2023-03-23T16:11:56.213Z,9.40
2023-03-23T16:14:23.228Z,10.00
2023-03-23T16:16:53.274Z,8.10
2023-03-23T16:19:24.592Z,12.20
2023-03-23T16:21:51.634Z,10.30
2023-03-23T16:24:19.585Z,8.90
2023-03-23T16:26:47.358Z,10.90
2023-03-23T16:29:33.797Z,12.80
2023-03-23T16:32:04.084Z,15.40
2023-03-23T16:34:34.199Z,13.30
2023-03-23T16:37:02.161Z,15.60
2023-03-23T16:39:29.246Z,15.10
2023-03-23T16:41:56.499Z,15.60
2023-03-23T16:44:23.648Z,16.00
2023-03-23T16:46:50.959Z,15.20
2023-03-23T16:49:18.005Z,19.50
2023-03-23T16:51:45.146Z,16.60
2023-03-23T16:54:12.215Z,22.70
2023-03-23T16:56:39.767Z,20.50
2023-03-23T16:59:07.584Z,22.00
2023-03-23T17:01:34.657Z,23.50
2023-03-23T17:04:02.015Z,19.60
2023-03-23T17:06:28.935Z,22.00
2023-03-23T17:08:56.449Z,26.60
2023-03-23T17:11:23.729Z,41.60
2023-03-23T17:13:50.911Z,30.70
2023-03-23T17:16:18.564Z,38.10
2023-03-23T17:18:46.205Z,51.90
2023-03-23T17:21:13.068Z,33.70
2023-03-23T17:23:40.739Z,20.90
2023-03-23T17:26:08.395Z,33.20
2023-03-23T17:28:35.430Z,27.40
2023-03-23T17:31:02.632Z,20.70
2023-03-23T17:33:30.034Z,22.80
2023-03-23T17:36:16.538Z,24.30
2023-03-23T17:38:43.766Z,36.20
2023-03-23T17:41:12.009Z,57.70
2023-03-23T17:43:41.362Z,64.70
2023-03-23T17:46:11.174Z,48.40
2023-03-23T17:48:38.243Z,27.40
2023-03-23T17:51:05.907Z,24.80
2023-03-23T17:53:38.864Z,25.80
2023-03-23T17:56:07.618Z,17.10
2023-03-23T17:58:35.747Z,18.20
2023-03-23T18:01:04.105Z,15.20
2023-03-23T18:03:31.812Z,18.70
2023-03-23T18:06:05.453Z,13.00
2023-03-23T18:08:33.050Z,15.10
2023-03-23T18:11:00.767Z,24.00
2023-03-23T18:13:29.917Z,19.80
2023-03-23T18:15:58.164Z,36.30
2023-03-23T18:18:26.429Z,16.90
2023-03-23T18:20:58.542Z,24.70
2023-03-23T18:23:26.139Z,28.80
2023-03-23T18:25:54.321Z,25.70
2023-03-23T18:28:23.119Z,30.20
2023-03-23T18:30:50.344Z,78.40
2023-03-23T18:33:20.378Z,39.30
2023-03-23T18:35:48.568Z,81.80
2023-03-23T18:38:16.194Z,25.30
2023-03-23T18:40:47.027Z,18.30
2023-03-23T18:45:42.201Z,22.80
2023-03-23T18:48:10.112Z,22.60
2023-03-23T18:50:37.265Z,45.60
2023-03-23T18:53:04.187Z,26.90
2023-03-23T18:55:31.237Z,24.10
2023-03-23T18:58:01.103Z,14.90
2023-03-23T19:00:28.195Z,20.00
2023-03-23T19:02:55.542Z,21.20
2023-03-23T19:05:22.997Z,14.40
2023-03-23T19:07:53.842Z,15.90
2023-03-23T19:12:49.924Z,15.30
2023-03-23T19:15:17.630Z,18.40
2023-03-23T19:17:45.465Z,23.00
2023-03-23T19:20:16.173Z,54.40
2023-03-23T19:22:50.940Z,19.60
2023-03-23T19:25:19.436Z,14.40
2023-03-23T19:28:38.564Z,14.30
2023-03-23T19:30:35.507Z,17.40
2023-03-23T19:33:02.728Z,16.30
2023-03-23T19:35:31.734Z,16.00
2023-03-23T19:37:58.827Z,17.50
2023-03-23T19:40:39.643Z,12.30
2023-03-23T19:43:08.637Z,15.30
2023-03-23T19:45:36.436Z,16.50
2023-03-23T19:48:04.104Z,20.10
2023-03-23T19:50:33.382Z,14.70
2023-03-23T19:53:01.480Z,12.40
2023-03-23T19:55:29.420Z,14.20
2023-03-23T19:57:56.872Z,16.20
2023-03-23T20:00:25.121Z,12.80
2023-03-23T20:02:52.446Z,15.50
2023-03-23T20:05:19.660Z,12.80
2023-03-23T20:07:51.645Z,15.50
2023-03-23T20:10:19.291Z,14.80
2023-03-23T20:12:47.433Z,13.10
2023-03-23T20:15:15.116Z,24.90
2023-03-23T20:17:42.395Z,22.20
2023-03-23T20:20:10.549Z,19.20
2023-03-23T20:22:38.316Z,21.70
2023-03-23T20:25:08.218Z,16.50
2023-03-23T20:27:37.895Z,26.50
2023-03-23T20:30:07.837Z,23.20
2023-03-23T20:32:35.191Z,23.90
2023-03-23T20:35:09.266Z,18.40
2023-03-23T20:37:38.712Z,24.90
2023-03-23T20:40:13.421Z,23.30
2023-03-23T20:42:44.204Z,27.60
2023-03-23T20:47:40.592Z,25.20
2023-03-23T20:50:09.591Z,24.00
2023-03-23T20:52:37.750Z,21.20
2023-03-23T20:55:04.943Z,21.20
2023-03-23T20:57:32.707Z,21.30
2023-03-23T20:59:59.941Z,19.80
2023-03-23T21:02:30.290Z,16.50
2023-03-23T21:04:58.727Z,14.00
2023-03-23T21:07:27.894Z,11.80
2023-03-23T21:09:55.336Z,18.70
2023-03-23T21:12:23.576Z,9.40
2023-03-23T21:14:51.255Z,12.30
2023-03-23T21:17:18.696Z,13.00
2023-03-23T21:19:46.020Z,11.40
2023-03-23T21:22:15.099Z,9.80
2023-03-23T21:24:42.661Z,9.80
2023-03-23T21:27:09.578Z,12.20
2023-03-23T21:29:37.056Z,8.00
2023-03-23T21:32:08.220Z,6.80
2023-03-23T21:34:37.678Z,6.30
2023-03-23T21:37:05.573Z,8.00
2023-03-23T21:39:33.910Z,10.00
2023-03-23T21:42:02.449Z,15.60
2023-03-23T21:44:29.773Z,18.30
2023-03-23T21:46:56.814Z,15.10
2023-03-23T21:49:24.138Z,14.40
2023-03-23T21:51:51.219Z,13.20
2023-03-23T21:54:18.625Z,15.60
2023-03-23T21:56:45.761Z,24.30
2023-03-23T21:59:12.751Z,14.20
2023-03-23T22:01:43.323Z,22.20
2023-03-23T22:06:38.192Z,19.90
2023-03-23T22:09:06.309Z,18.20
2023-03-23T22:11:33.923Z,23.70
2023-03-23T22:14:01.096Z,21.00
2023-03-23T22:16:28.660Z,25.90
2023-03-23T22:18:58.919Z,21.00
2023-03-23T22:21:28.448Z,21.20
2023-03-23T22:23:58.215Z,17.00
2023-03-23T22:26:27.503Z,15.10
2023-03-23T22:28:55.094Z,13.30
2023-03-23T22:31:30.552Z,11.90
2023-03-23T22:33:58.463Z,13.00
2023-03-23T22:36:27.658Z,13.10
2023-03-23T22:38:56.710Z,12.00
2023-03-23T22:41:29.752Z,10.30
2023-03-23T22:44:02.888Z,14.10
2023-03-23T22:46:30.997Z,11.10
2023-03-23T22:48:57.948Z,12.70
2023-03-23T22:51:24.953Z,12.20
2023-03-23T22:53:52.090Z,9.20
2023-03-23T22:56:20.211Z,14.00
2023-03-23T22:58:47.206Z,16.70
2023-03-23T23:01:20.142Z,14.30
2023-03-23T23:03:48.752Z,12.80
2023-03-23T23:06:17.628Z,17.50
2023-03-23T23:08:45.937Z,8.70
2023-03-23T23:11:16.530Z,14.40
2023-03-23T23:13:45.007Z,9.80
2023-03-23T23:16:13.579Z,10.30
2023-03-23T23:18:41.554Z,8.80
2023-03-23T23:21:12.629Z,11.00
2023-03-23T23:23:39.726Z,17.90
2023-03-23T23:26:07.733Z,10.70
2023-03-23T23:28:35.721Z,10.70
2023-03-23T23:31:04.356Z,8.80
2023-03-23T23:33:31.417Z,10.40
2023-03-23T23:35:58.509Z,16.80
2023-03-23T23:38:25.730Z,10.00
2023-03-23T23:40:53.154Z,9.70
2023-03-23T23:43:20.595Z,15.20
2023-03-23T23:45:47.705Z,8.60
2023-03-23T23:48:14.918Z,11.80
2023-03-23T23:50:42.087Z,6.90
2023-03-23T23:53:10.434Z,9.60
2023-03-23T23:55:40.059Z,6.50
2023-03-23T23:58:07.167Z,5.00
